EGNS/IOM METAR and TAF weather

Enter ICAO airport designator
Station Type Date Time Source
EGNS METAR 2020/06/02 17:50 UTC NOAA

EGNS 021750Z 28008KT 260V320 CAVOK 19/07 Q1016 NOSIG


Station Type Date Time Source
EGNS Decoded METAR 2020/06/02 17:50 UTC NOAA

Isle Of Man / Ronaldsway Airport, United Kingdom (EGNS) 54-05N 004-38W 0M
Jun 02, 2020 - 01:50 PM EDT / 2020.06.02 1750 UTC
Wind: from the W (280 degrees) at 9 MPH (8 KT) (direction variable):0
Visibility: greater than 7 mile(s):0
Temperature: 66 F (19 C)
Dew Point: 44 F (7 C)
Relative Humidity: 45%
Pressure (altimeter): 30.00 in. Hg (1016 hPa)
ob: EGNS 021750Z 28008KT 260V320 CAVOK 19/07 Q1016 NOSIG
cycle: 18

Station Type Date Time Source
EGNS TAF 2019/01/16 05:00 UTC NOAA

TAF EGNS 160500 Z 1606/1615 28020KT 9999 FEW010 BKN025
TEMPO 1606/1609 6000 RA BKN010 PROB30
TEMPO 1613/1615 7000 -SHRA

Example: see airport list